LFOC 110600Z AUTO 36005KT 3100 BR BKN005 BKN023 BKN028 11/11 Q1028

ElémentsDécodage
LFOC Station météo située sur l'aérodrome de CHATEAUDUN
110600Z émis le 11 du mois à 06h00 UTC
AUTO Bulletin édité par un automate
36005KT vent du 360°, 05 noeuds
3100 visibilité horizontale de 3100 mètres
BR brume
BKN005 nuages morcelés (5/8 à 7/8) à 500 pieds
BKN023 nuages morcelés (5/8 à 7/8) à 2300 pieds
BKN028 nuages morcelés (5/8 à 7/8) à 2800 pieds
11/11 température 11°C, point de rosée 11°C
 soit une humidité relative de 100%
Q1028 la pression au niveau de la mer (QNH) est de 1028 hPa